sensor_id;sensor_type;location;lat;lon;timestamp;P1;durP1;ratioP1;P2;durP2;ratioP2
13279;SDS011;6708;49.814;8.652;2024-03-22T00:02:21;6.37;;;5.87;;
13279;SDS011;6708;49.814;8.652;2024-03-22T00:04:46;7.37;;;6.77;;
13279;SDS011;6708;49.814;8.652;2024-03-22T00:07:12;6.83;;;6.30;;
13279;SDS011;6708;49.814;8.652;2024-03-22T00:09:46;7.03;;;6.37;;
13279;SDS011;6708;49.814;8.652;2024-03-22T00:12:12;5.53;;;5.03;;
13279;SDS011;6708;49.814;8.652;2024-03-22T00:14:38;7.33;;;6.00;;
13279;SDS011;6708;49.814;8.652;2024-03-22T00:17:04;7.10;;;6.43;;
13279;SDS011;6708;49.814;8.652;2024-03-22T00:19:30;6.53;;;5.80;;
13279;SDS011;6708;49.814;8.652;2024-03-22T00:21:55;6.63;;;6.10;;
13279;SDS011;6708;49.814;8.652;2024-03-22T00:24:21;9.03;;;6.70;;
13279;SDS011;6708;49.814;8.652;2024-03-22T00:26:50;6.57;;;5.93;;
13279;SDS011;6708;49.814;8.652;2024-03-22T00:29:15;6.90;;;6.20;;
13279;SDS011;6708;49.814;8.652;2024-03-22T00:31:41;7.07;;;6.37;;
13279;SDS011;6708;49.814;8.652;2024-03-22T00:34:07;7.73;;;6.93;;
13279;SDS011;6708;49.814;8.652;2024-03-22T00:36:33;7.43;;;6.73;;
13279;SDS011;6708;49.814;8.652;2024-03-22T00:38:58;8.20;;;7.50;;
13279;SDS011;6708;49.814;8.652;2024-03-22T00:41:24;10.50;;;7.13;;
13279;SDS011;6708;49.814;8.652;2024-03-22T00:43:53;8.77;;;7.87;;
13279;SDS011;6708;49.814;8.652;2024-03-22T00:46:18;8.43;;;7.60;;
13279;SDS011;6708;49.814;8.652;2024-03-22T00:48:44;8.43;;;6.83;;
13279;SDS011;6708;49.814;8.652;2024-03-22T00:51:10;7.40;;;6.80;;
13279;SDS011;6708;49.814;8.652;2024-03-22T00:53:36;8.17;;;7.37;;
13279;SDS011;6708;49.814;8.652;2024-03-22T00:56:01;8.40;;;7.60;;
13279;SDS011;6708;49.814;8.652;2024-03-22T00:58:27;9.80;;;7.80;;
13279;SDS011;6708;49.814;8.652;2024-03-22T01:00:56;10.17;;;7.00;;
13279;SDS011;6708;49.814;8.652;2024-03-22T01:03:21;8.53;;;7.73;;
13279;SDS011;6708;49.814;8.652;2024-03-22T01:05:47;8.17;;;7.37;;
13279;SDS011;6708;49.814;8.652;2024-03-22T01:08:13;8.63;;;7.37;;
13279;SDS011;6708;49.814;8.652;2024-03-22T01:10:39;7.70;;;7.07;;
13279;SDS011;6708;49.814;8.652;2024-03-22T01:13:05;8.90;;;8.10;;
13279;SDS011;6708;49.814;8.652;2024-03-22T01:15:31;8.97;;;8.10;;
13279;SDS011;6708;49.814;8.652;2024-03-22T01:17:59;8.13;;;7.30;;
13279;SDS011;6708;49.814;8.652;2024-03-22T01:20:25;8.47;;;7.57;;
13279;SDS011;6708;49.814;8.652;2024-03-22T01:22:51;8.30;;;7.60;;
13279;SDS011;6708;49.814;8.652;2024-03-22T01:25:17;9.53;;;8.53;;
13279;SDS011;6708;49.814;8.652;2024-03-22T01:27:42;9.53;;;8.00;;
13279;SDS011;6708;49.814;8.652;2024-03-22T01:30:10;12.10;;;8.90;;
13279;SDS011;6708;49.814;8.652;2024-03-22T01:32:36;8.87;;;8.07;;
13279;SDS011;6708;49.814;8.652;2024-03-22T01:35:05;9.27;;;8.37;;
13279;SDS011;6708;49.814;8.652;2024-03-22T01:37:31;8.63;;;7.80;;
13279;SDS011;6708;49.814;8.652;2024-03-22T01:39:57;8.93;;;8.13;;
13279;SDS011;6708;49.814;8.652;2024-03-22T01:42:23;7.93;;;7.23;;
13279;SDS011;6708;49.814;8.652;2024-03-22T01:44:49;8.57;;;7.80;;
13279;SDS011;6708;49.814;8.652;2024-03-22T01:47:15;9.47;;;8.67;;
13279;SDS011;6708;49.814;8.652;2024-03-22T01:49:41;8.57;;;7.77;;
13279;SDS011;6708;49.814;8.652;2024-03-22T01:52:09;11.50;;;9.20;;
13279;SDS011;6708;49.814;8.652;2024-03-22T01:54:35;9.23;;;8.20;;
13279;SDS011;6708;49.814;8.652;2024-03-22T01:57:01;8.67;;;7.80;;
13279;SDS011;6708;49.814;8.652;2024-03-22T01:59:27;11.07;;;7.80;;
13279;SDS011;6708;49.814;8.652;2024-03-22T02:01:53;11.77;;;7.40;;
13279;SDS011;6708;49.814;8.652;2024-03-22T02:04:19;8.03;;;7.23;;
13279;SDS011;6708;49.814;8.652;2024-03-22T02:06:45;8.40;;;7.50;;
13279;SDS011;6708;49.814;8.652;2024-03-22T02:09:13;11.93;;;8.17;;
13279;SDS011;6708;49.814;8.652;2024-03-22T02:11:40;8.97;;;8.03;;
13279;SDS011;6708;49.814;8.652;2024-03-22T02:14:06;8.53;;;7.63;;
13279;SDS011;6708;49.814;8.652;2024-03-22T02:16:32;9.07;;;8.17;;
13279;SDS011;6708;49.814;8.652;2024-03-22T02:18:58;9.43;;;8.57;;
13279;SDS011;6708;49.814;8.652;2024-03-22T02:21:24;13.60;;;9.53;;
13279;SDS011;6708;49.814;8.652;2024-03-22T02:23:52;11.50;;;9.33;;
13279;SDS011;6708;49.814;8.652;2024-03-22T02:26:18;9.73;;;8.37;;
13279;SDS011;6708;49.814;8.652;2024-03-22T02:28:44;9.80;;;8.87;;
13279;SDS011;6708;49.814;8.652;2024-03-22T02:31:09;9.03;;;7.90;;
13279;SDS011;6708;49.814;8.652;2024-03-22T02:33:35;9.33;;;8.43;;
13279;SDS011;6708;49.814;8.652;2024-03-22T02:36:01;8.80;;;7.93;;
13279;SDS011;6708;49.814;8.652;2024-03-22T02:38:27;14.77;;;9.07;;
13279;SDS011;6708;49.814;8.652;2024-03-22T02:40:55;9.40;;;8.40;;
13279;SDS011;6708;49.814;8.652;2024-03-22T02:43:23;11.10;;;9.17;;
13279;SDS011;6708;49.814;8.652;2024-03-22T02:45:49;10.73;;;9.73;;
13279;SDS011;6708;49.814;8.652;2024-03-22T02:48:17;13.40;;;10.47;;
13279;SDS011;6708;49.814;8.652;2024-03-22T02:50:43;11.50;;;9.97;;
13279;SDS011;6708;49.814;8.652;2024-03-22T02:53:08;11.97;;;10.20;;
13279;SDS011;6708;49.814;8.652;2024-03-22T02:55:37;11.33;;;9.63;;
13279;SDS011;6708;49.814;8.652;2024-03-22T02:58:06;10.33;;;9.20;;
13279;SDS011;6708;49.814;8.652;2024-03-22T03:00:35;10.83;;;9.30;;
13279;SDS011;6708;49.814;8.652;2024-03-22T03:03:01;10.47;;;8.10;;
13279;SDS011;6708;49.814;8.652;2024-03-22T03:05:27;9.43;;;8.43;;
13279;SDS011;6708;49.814;8.652;2024-03-22T03:07:52;9.30;;;8.40;;
13279;SDS011;6708;49.814;8.652;2024-03-22T03:10:18;10.67;;;9.40;;
13279;SDS011;6708;49.814;8.652;2024-03-22T03:12:44;11.33;;;8.33;;
13279;SDS011;6708;49.814;8.652;2024-03-22T03:15:12;10.03;;;9.00;;
13279;SDS011;6708;49.814;8.652;2024-03-22T03:17:38;11.07;;;9.30;;
13279;SDS011;6708;49.814;8.652;2024-03-22T03:20:05;11.93;;;8.90;;
13279;SDS011;6708;49.814;8.652;2024-03-22T03:22:33;10.50;;;9.50;;
13279;SDS011;6708;49.814;8.652;2024-03-22T03:24:58;11.17;;;9.93;;
13279;SDS011;6708;49.814;8.652;2024-03-22T03:27:24;11.13;;;9.73;;
13279;SDS011;6708;49.814;8.652;2024-03-22T03:29:50;11.50;;;9.00;;
13279;SDS011;6708;49.814;8.652;2024-03-22T03:32:19;11.57;;;9.97;;
13279;SDS011;6708;49.814;8.652;2024-03-22T03:34:44;13.57;;;9.13;;
13279;SDS011;6708;49.814;8.652;2024-03-22T03:37:10;11.37;;;10.10;;
13279;SDS011;6708;49.814;8.652;2024-03-22T03:39:36;13.60;;;9.80;;
13279;SDS011;6708;49.814;8.652;2024-03-22T03:42:02;13.03;;;10.30;;
13279;SDS011;6708;49.814;8.652;2024-03-22T03:44:28;12.73;;;10.97;;
13279;SDS011;6708;49.814;8.652;2024-03-22T03:46:54;10.37;;;9.20;;
13279;SDS011;6708;49.814;8.652;2024-03-22T03:49:22;13.43;;;9.73;;
13279;SDS011;6708;49.814;8.652;2024-03-22T03:51:48;14.93;;;9.50;;
13279;SDS011;6708;49.814;8.652;2024-03-22T03:54:13;13.50;;;10.17;;
13279;SDS011;6708;49.814;8.652;2024-03-22T03:56:39;10.40;;;9.27;;
13279;SDS011;6708;49.814;8.652;2024-03-22T03:59:05;11.40;;;9.87;;
13279;SDS011;6708;49.814;8.652;2024-03-22T04:01:31;11.97;;;9.33;;
13279;SDS011;6708;49.814;8.652;2024-03-22T04:03:56;10.17;;;8.97;;
13279;SDS011;6708;49.814;8.652;2024-03-22T04:06:25;10.93;;;9.60;;
13279;SDS011;6708;49.814;8.652;2024-03-22T04:08:51;12.47;;;11.27;;
13279;SDS011;6708;49.814;8.652;2024-03-22T04:11:16;16.53;;;11.00;;
13279;SDS011;6708;49.814;8.652;2024-03-22T04:13:42;14.10;;;10.67;;
13279;SDS011;6708;49.814;8.652;2024-03-22T04:16:08;11.50;;;9.43;;
13279;SDS011;6708;49.814;8.652;2024-03-22T04:18:34;11.63;;;10.03;;
13279;SDS011;6708;49.814;8.652;2024-03-22T04:20:59;10.37;;;9.33;;
13279;SDS011;6708;49.814;8.652;2024-03-22T04:23:29;16.80;;;9.80;;
13279;SDS011;6708;49.814;8.652;2024-03-22T04:25:55;12.33;;;9.50;;
13279;SDS011;6708;49.814;8.652;2024-03-22T04:28:21;12.37;;;10.17;;
13279;SDS011;6708;49.814;8.652;2024-03-22T04:30:54;9.77;;;8.90;;
13279;SDS011;6708;49.814;8.652;2024-03-22T04:33:21;13.33;;;11.17;;
13279;SDS011;6708;49.814;8.652;2024-03-22T04:35:47;11.60;;;10.50;;
13279;SDS011;6708;49.814;8.652;2024-03-22T04:38:12;12.10;;;10.70;;
13279;SDS011;6708;49.814;8.652;2024-03-22T04:40:41;11.30;;;10.07;;
13279;SDS011;6708;49.814;8.652;2024-03-22T04:43:07;15.57;;;9.47;;
13279;SDS011;6708;49.814;8.652;2024-03-22T04:45:33;14.73;;;10.53;;
13279;SDS011;6708;49.814;8.652;2024-03-22T04:48:00;10.60;;;9.60;;
13279;SDS011;6708;49.814;8.652;2024-03-22T04:50:27;12.83;;;10.50;;
13279;SDS011;6708;49.814;8.652;2024-03-22T04:52:52;11.63;;;9.50;;
13279;SDS011;6708;49.814;8.652;2024-03-22T04:55:18;12.27;;;9.87;;
13279;SDS011;6708;49.814;8.652;2024-03-22T04:57:46;11.37;;;10.17;;
13279;SDS011;6708;49.814;8.652;2024-03-22T05:00:13;12.40;;;10.03;;
13279;SDS011;6708;49.814;8.652;2024-03-22T05:02:40;15.43;;;10.67;;
13279;SDS011;6708;49.814;8.652;2024-03-22T05:05:06;11.97;;;9.97;;
13279;SDS011;6708;49.814;8.652;2024-03-22T05:07:32;10.83;;;9.73;;
13279;SDS011;6708;49.814;8.652;2024-03-22T05:09:58;13.17;;;10.87;;
13279;SDS011;6708;49.814;8.652;2024-03-22T05:12:24;15.47;;;10.90;;
13279;SDS011;6708;49.814;8.652;2024-03-22T05:14:52;13.17;;;11.03;;
13279;SDS011;6708;49.814;8.652;2024-03-22T05:17:18;14.23;;;11.70;;
13279;SDS011;6708;49.814;8.652;2024-03-22T05:19:43;12.33;;;10.47;;
13279;SDS011;6708;49.814;8.652;2024-03-22T05:22:09;11.77;;;10.40;;
13279;SDS011;6708;49.814;8.652;2024-03-22T05:24:35;12.20;;;10.40;;
13279;SDS011;6708;49.814;8.652;2024-03-22T05:27:01;15.23;;;10.40;;
13279;SDS011;6708;49.814;8.652;2024-03-22T05:29:27;16.77;;;11.30;;
13279;SDS011;6708;49.814;8.652;2024-03-22T05:31:55;13.10;;;9.80;;
13279;SDS011;6708;49.814;8.652;2024-03-22T05:34:21;15.00;;;9.87;;
13279;SDS011;6708;49.814;8.652;2024-03-22T05:36:47;14.20;;;10.67;;
13279;SDS011;6708;49.814;8.652;2024-03-22T05:39:13;14.23;;;11.50;;
13279;SDS011;6708;49.814;8.652;2024-03-22T05:41:38;14.37;;;9.73;;
13279;SDS011;6708;49.814;8.652;2024-03-22T05:44:04;13.33;;;10.43;;
13279;SDS011;6708;49.814;8.652;2024-03-22T05:46:30;10.90;;;9.37;;
13279;SDS011;6708;49.814;8.652;2024-03-22T05:48:58;11.47;;;9.37;;
13279;SDS011;6708;49.814;8.652;2024-03-22T05:51:24;14.33;;;10.53;;
13279;SDS011;6708;49.814;8.652;2024-03-22T05:53:50;11.13;;;9.73;;
13279;SDS011;6708;49.814;8.652;2024-03-22T05:56:16;10.83;;;9.83;;
13279;SDS011;6708;49.814;8.652;2024-03-22T05:58:41;12.20;;;10.03;;
13279;SDS011;6708;49.814;8.652;2024-03-22T06:01:07;12.17;;;9.97;;
13279;SDS011;6708;49.814;8.652;2024-03-22T06:03:33;14.00;;;10.63;;
13279;SDS011;6708;49.814;8.652;2024-03-22T06:06:01;16.30;;;11.13;;
13279;SDS011;6708;49.814;8.652;2024-03-22T06:08:27;15.47;;;10.83;;
13279;SDS011;6708;49.814;8.652;2024-03-22T06:10:55;13.53;;;10.27;;
13279;SDS011;6708;49.814;8.652;2024-03-22T06:13:21;13.43;;;10.70;;
13279;SDS011;6708;49.814;8.652;2024-03-22T06:15:48;14.87;;;10.17;;
13279;SDS011;6708;49.814;8.652;2024-03-22T06:18:14;10.97;;;9.80;;
13279;SDS011;6708;49.814;8.652;2024-03-22T06:20:40;10.47;;;9.37;;
13279;SDS011;6708;49.814;8.652;2024-03-22T06:23:08;11.93;;;9.67;;
13279;SDS011;6708;49.814;8.652;2024-03-22T06:25:34;13.00;;;9.47;;
13279;SDS011;6708;49.814;8.652;2024-03-22T06:27:59;12.07;;;10.00;;
13279;SDS011;6708;49.814;8.652;2024-03-22T06:30:25;13.10;;;11.20;;
13279;SDS011;6708;49.814;8.652;2024-03-22T06:32:51;11.93;;;10.73;;
13279;SDS011;6708;49.814;8.652;2024-03-22T06:35:17;12.37;;;10.30;;
13279;SDS011;6708;49.814;8.652;2024-03-22T06:37:43;9.87;;;8.87;;
13279;SDS011;6708;49.814;8.652;2024-03-22T06:40:12;11.47;;;9.27;;
13279;SDS011;6708;49.814;8.652;2024-03-22T06:42:38;21.43;;;10.40;;
13279;SDS011;6708;49.814;8.652;2024-03-22T06:45:04;12.57;;;9.93;;
13279;SDS011;6708;49.814;8.652;2024-03-22T06:47:30;12.23;;;10.43;;
13279;SDS011;6708;49.814;8.652;2024-03-22T06:49:56;14.20;;;12.10;;
13279;SDS011;6708;49.814;8.652;2024-03-22T06:52:22;13.97;;;11.60;;
13279;SDS011;6708;49.814;8.652;2024-03-22T06:54:47;12.63;;;10.90;;
13279;SDS011;6708;49.814;8.652;2024-03-22T06:57:16;14.00;;;10.30;;
13279;SDS011;6708;49.814;8.652;2024-03-22T06:59:41;12.10;;;9.77;;
13279;SDS011;6708;49.814;8.652;2024-03-22T07:02:07;13.10;;;9.23;;
13279;SDS011;6708;49.814;8.652;2024-03-22T07:04:34;10.70;;;9.60;;
13279;SDS011;6708;49.814;8.652;2024-03-22T07:07:00;11.73;;;9.07;;
13279;SDS011;6708;49.814;8.652;2024-03-22T07:09:25;9.50;;;8.33;;
13279;SDS011;6708;49.814;8.652;2024-03-22T07:11:52;11.47;;;8.57;;
13279;SDS011;6708;49.814;8.652;2024-03-22T07:14:20;13.37;;;8.67;;
13279;SDS011;6708;49.814;8.652;2024-03-22T07:16:46;10.70;;;9.10;;
13279;SDS011;6708;49.814;8.652;2024-03-22T07:19:11;8.90;;;7.87;;
13279;SDS011;6708;49.814;8.652;2024-03-22T07:21:37;8.27;;;7.43;;
13279;SDS011;6708;49.814;8.652;2024-03-22T07:24:04;9.13;;;6.90;;
13279;SDS011;6708;49.814;8.652;2024-03-22T07:26:30;12.00;;;7.97;;
13279;SDS011;6708;49.814;8.652;2024-03-22T07:28:56;7.77;;;6.93;;
13279;SDS011;6708;49.814;8.652;2024-03-22T07:31:24;7.77;;;7.00;;
13279;SDS011;6708;49.814;8.652;2024-03-22T07:33:50;7.30;;;6.13;;
13279;SDS011;6708;49.814;8.652;2024-03-22T07:36:16;9.30;;;7.00;;
13279;SDS011;6708;49.814;8.652;2024-03-22T07:38:42;7.50;;;6.10;;
13279;SDS011;6708;49.814;8.652;2024-03-22T07:41:08;6.83;;;6.27;;
13279;SDS011;6708;49.814;8.652;2024-03-22T07:43:33;5.97;;;5.47;;
13279;SDS011;6708;49.814;8.652;2024-03-22T07:45:59;6.47;;;5.80;;
13279;SDS011;6708;49.814;8.652;2024-03-22T07:48:28;5.73;;;5.17;;
13279;SDS011;6708;49.814;8.652;2024-03-22T07:50:55;6.30;;;5.23;;
13279;SDS011;6708;49.814;8.652;2024-03-22T07:53:22;6.67;;;5.80;;
13279;SDS011;6708;49.814;8.652;2024-03-22T07:55:48;5.70;;;5.10;;
13279;SDS011;6708;49.814;8.652;2024-03-22T07:58:14;5.63;;;5.17;;
13279;SDS011;6708;49.814;8.652;2024-03-22T08:00:40;5.83;;;5.20;;
13279;SDS011;6708;49.814;8.652;2024-03-22T08:03:06;5.47;;;4.97;;
13279;SDS011;6708;49.814;8.652;2024-03-22T08:05:34;6.37;;;5.00;;
13279;SDS011;6708;49.814;8.652;2024-03-22T08:08:00;5.00;;;4.50;;
13279;SDS011;6708;49.814;8.652;2024-03-22T08:10:25;5.70;;;4.70;;
13279;SDS011;6708;49.814;8.652;2024-03-22T08:12:51;4.43;;;4.03;;
13279;SDS011;6708;49.814;8.652;2024-03-22T08:15:17;4.73;;;4.33;;
13279;SDS011;6708;49.814;8.652;2024-03-22T08:17:43;5.60;;;4.30;;
13279;SDS011;6708;49.814;8.652;2024-03-22T08:20:09;11.73;;;4.63;;
13279;SDS011;6708;49.814;8.652;2024-03-22T08:22:37;4.33;;;4.00;;
13279;SDS011;6708;49.814;8.652;2024-03-22T08:25:03;3.90;;;3.57;;
13279;SDS011;6708;49.814;8.652;2024-03-22T08:27:29;4.30;;;3.83;;
13279;SDS011;6708;49.814;8.652;2024-03-22T08:29:55;4.20;;;3.77;;
13279;SDS011;6708;49.814;8.652;2024-03-22T08:32:21;3.83;;;3.50;;
13279;SDS011;6708;49.814;8.652;2024-03-22T08:34:47;6.13;;;4.30;;
13279;SDS011;6708;49.814;8.652;2024-03-22T08:37:12;3.87;;;3.57;;
13279;SDS011;6708;49.814;8.652;2024-03-22T08:39:41;4.03;;;3.70;;
13279;SDS011;6708;49.814;8.652;2024-03-22T08:42:07;4.77;;;3.67;;
13279;SDS011;6708;49.814;8.652;2024-03-22T08:44:32;3.57;;;3.27;;
13279;SDS011;6708;49.814;8.652;2024-03-22T08:46:58;3.93;;;3.60;;
13279;SDS011;6708;49.814;8.652;2024-03-22T08:49:24;4.43;;;3.60;;
13279;SDS011;6708;49.814;8.652;2024-03-22T08:51:50;3.87;;;3.57;;
13279;SDS011;6708;49.814;8.652;2024-03-22T08:54:16;5.70;;;3.47;;
13279;SDS011;6708;49.814;8.652;2024-03-22T08:56:44;6.67;;;3.93;;
13279;SDS011;6708;49.814;8.652;2024-03-22T08:59:10;3.70;;;3.40;;
13279;SDS011;6708;49.814;8.652;2024-03-22T09:01:36;3.73;;;3.43;;
13279;SDS011;6708;49.814;8.652;2024-03-22T09:04:02;3.40;;;3.20;;
13279;SDS011;6708;49.814;8.652;2024-03-22T09:06:28;4.37;;;3.70;;
13279;SDS011;6708;49.814;8.652;2024-03-22T09:08:54;3.80;;;3.50;;
13279;SDS011;6708;49.814;8.652;2024-03-22T09:11:20;2.97;;;2.87;;
13279;SDS011;6708;49.814;8.652;2024-03-22T09:13:48;2.80;;;2.60;;
13279;SDS011;6708;49.814;8.652;2024-03-22T09:16:17;7.30;;;3.30;;
13279;SDS011;6708;49.814;8.652;2024-03-22T09:18:42;2.80;;;2.60;;
13279;SDS011;6708;49.814;8.652;2024-03-22T09:21:08;2.97;;;2.77;;
13279;SDS011;6708;49.814;8.652;2024-03-22T09:23:34;3.20;;;2.77;;
13279;SDS011;6708;49.814;8.652;2024-03-22T09:26:00;3.37;;;2.60;;
13279;SDS011;6708;49.814;8.652;2024-03-22T09:28:26;4.30;;;3.10;;
13279;SDS011;6708;49.814;8.652;2024-03-22T09:30:54;3.50;;;2.87;;
13279;SDS011;6708;49.814;8.652;2024-03-22T09:33:20;3.40;;;3.00;;
13279;SDS011;6708;49.814;8.652;2024-03-22T09:35:45;3.50;;;3.30;;
13279;SDS011;6708;49.814;8.652;2024-03-22T09:38:11;4.17;;;3.23;;
13279;SDS011;6708;49.814;8.652;2024-03-22T09:40:37;3.03;;;2.73;;
13279;SDS011;6708;49.814;8.652;2024-03-22T09:43:04;3.17;;;2.90;;
13279;SDS011;6708;49.814;8.652;2024-03-22T09:45:32;3.60;;;3.30;;
13279;SDS011;6708;49.814;8.652;2024-03-22T09:48:01;3.50;;;3.20;;
13279;SDS011;6708;49.814;8.652;2024-03-22T09:50:27;2.83;;;2.63;;
13279;SDS011;6708;49.814;8.652;2024-03-22T09:52:54;5.23;;;3.30;;
13279;SDS011;6708;49.814;8.652;2024-03-22T09:55:22;4.50;;;3.10;;
13279;SDS011;6708;49.814;8.652;2024-03-22T09:57:48;3.70;;;3.37;;
13279;SDS011;6708;49.814;8.652;2024-03-22T10:00:15;4.13;;;3.67;;
13279;SDS011;6708;49.814;8.652;2024-03-22T10:02:43;4.43;;;4.03;;
13279;SDS011;6708;49.814;8.652;2024-03-22T10:05:12;6.17;;;4.00;;
13279;SDS011;6708;49.814;8.652;2024-03-22T10:07:38;4.60;;;4.20;;
13279;SDS011;6708;49.814;8.652;2024-03-22T10:10:04;4.63;;;4.10;;
13279;SDS011;6708;49.814;8.652;2024-03-22T10:12:30;7.00;;;4.37;;
13279;SDS011;6708;49.814;8.652;2024-03-22T10:14:55;5.47;;;4.37;;
13279;SDS011;6708;49.814;8.652;2024-03-22T10:17:21;4.63;;;4.23;;
13279;SDS011;6708;49.814;8.652;2024-03-22T10:19:48;9.53;;;5.00;;
13279;SDS011;6708;49.814;8.652;2024-03-22T10:22:16;6.63;;;4.83;;
13279;SDS011;6708;49.814;8.652;2024-03-22T10:24:42;5.70;;;4.73;;
13279;SDS011;6708;49.814;8.652;2024-03-22T10:27:09;6.23;;;4.83;;
13279;SDS011;6708;49.814;8.652;2024-03-22T10:29:35;5.30;;;4.80;;
13279;SDS011;6708;49.814;8.652;2024-03-22T10:32:01;4.80;;;4.40;;
13279;SDS011;6708;49.814;8.652;2024-03-22T10:34:27;5.87;;;4.33;;
13279;SDS011;6708;49.814;8.652;2024-03-22T10:36:54;6.03;;;4.50;;
13279;SDS011;6708;49.814;8.652;2024-03-22T10:39:23;6.80;;;5.23;;
13279;SDS011;6708;49.814;8.652;2024-03-22T10:41:50;5.67;;;5.10;;
13279;SDS011;6708;49.814;8.652;2024-03-22T10:44:16;6.20;;;5.60;;
13279;SDS011;6708;49.814;8.652;2024-03-22T10:46:44;7.90;;;5.17;;
13279;SDS011;6708;49.814;8.652;2024-03-22T10:49:11;9.77;;;4.87;;
13279;SDS011;6708;49.814;8.652;2024-03-22T10:51:41;5.30;;;4.80;;
13279;SDS011;6708;49.814;8.652;2024-03-22T10:54:08;6.20;;;4.87;;
13279;SDS011;6708;49.814;8.652;2024-03-22T10:56:37;6.50;;;5.43;;
13279;SDS011;6708;49.814;8.652;2024-03-22T10:59:03;5.60;;;4.97;;
13279;SDS011;6708;49.814;8.652;2024-03-22T11:01:28;4.90;;;4.33;;
13279;SDS011;6708;49.814;8.652;2024-03-22T11:04:02;8.03;;;4.83;;
13279;SDS011;6708;49.814;8.652;2024-03-22T11:06:28;5.50;;;4.53;;
13279;SDS011;6708;49.814;8.652;2024-03-22T11:08:58;7.67;;;4.40;;
13279;SDS011;6708;49.814;8.652;2024-03-22T11:11:24;4.87;;;4.43;;
13279;SDS011;6708;49.814;8.652;2024-03-22T11:13:56;5.33;;;4.80;;
13279;SDS011;6708;49.814;8.652;2024-03-22T11:16:22;5.57;;;4.47;;
13279;SDS011;6708;49.814;8.652;2024-03-22T11:18:48;5.40;;;4.90;;
13279;SDS011;6708;49.814;8.652;2024-03-22T11:21:14;5.63;;;4.40;;
13279;SDS011;6708;49.814;8.652;2024-03-22T11:23:40;4.70;;;4.20;;
13279;SDS011;6708;49.814;8.652;2024-03-22T11:26:05;8.60;;;4.67;;
13279;SDS011;6708;49.814;8.652;2024-03-22T11:28:32;5.30;;;3.77;;
13279;SDS011;6708;49.814;8.652;2024-03-22T11:31:00;6.40;;;3.80;;
13279;SDS011;6708;49.814;8.652;2024-03-22T11:33:26;5.07;;;3.97;;
13279;SDS011;6708;49.814;8.652;2024-03-22T11:35:52;4.23;;;3.83;;
13279;SDS011;6708;49.814;8.652;2024-03-22T11:38:18;5.70;;;3.80;;
13279;SDS011;6708;49.814;8.652;2024-03-22T11:40:44;4.07;;;3.73;;
13279;SDS011;6708;49.814;8.652;2024-03-22T11:43:10;4.47;;;3.70;;
13279;SDS011;6708;49.814;8.652;2024-03-22T11:45:36;4.47;;;3.90;;
13279;SDS011;6708;49.814;8.652;2024-03-22T11:48:05;4.07;;;3.67;;
13279;SDS011;6708;49.814;8.652;2024-03-22T11:50:32;5.03;;;3.63;;
13279;SDS011;6708;49.814;8.652;2024-03-22T11:52:58;3.73;;;3.33;;
13279;SDS011;6708;49.814;8.652;2024-03-22T11:55:28;6.53;;;3.83;;
13279;SDS011;6708;49.814;8.652;2024-03-22T11:57:53;5.40;;;3.50;;
13279;SDS011;6708;49.814;8.652;2024-03-22T12:00:19;3.43;;;3.20;;
13279;SDS011;6708;49.814;8.652;2024-03-22T12:02:45;3.20;;;3.00;;
13279;SDS011;6708;49.814;8.652;2024-03-22T12:05:14;4.00;;;3.60;;
13279;SDS011;6708;49.814;8.652;2024-03-22T12:07:39;7.70;;;3.47;;
13279;SDS011;6708;49.814;8.652;2024-03-22T12:10:06;6.30;;;3.67;;
13279;SDS011;6708;49.814;8.652;2024-03-22T12:12:32;4.33;;;4.03;;
13279;SDS011;6708;49.814;8.652;2024-03-22T12:14:58;6.17;;;3.80;;
13279;SDS011;6708;49.814;8.652;2024-03-22T12:17:24;4.47;;;4.07;;
13279;SDS011;6708;49.814;8.652;2024-03-22T12:19:51;5.90;;;3.70;;
13279;SDS011;6708;49.814;8.652;2024-03-22T12:22:19;5.17;;;3.93;;
13279;SDS011;6708;49.814;8.652;2024-03-22T12:24:45;9.97;;;4.30;;
13279;SDS011;6708;49.814;8.652;2024-03-22T12:27:11;6.83;;;4.50;;
13279;SDS011;6708;49.814;8.652;2024-03-22T12:29:37;4.00;;;3.70;;
13279;SDS011;6708;49.814;8.652;2024-03-22T12:32:03;5.63;;;4.20;;
13279;SDS011;6708;49.814;8.652;2024-03-22T12:34:29;4.43;;;4.03;;
13279;SDS011;6708;49.814;8.652;2024-03-22T12:36:55;8.00;;;5.23;;
13279;SDS011;6708;49.814;8.652;2024-03-22T12:39:23;7.57;;;4.97;;
13279;SDS011;6708;49.814;8.652;2024-03-22T12:41:49;9.33;;;5.20;;
13279;SDS011;6708;49.814;8.652;2024-03-22T12:44:14;4.50;;;4.20;;
13279;SDS011;6708;49.814;8.652;2024-03-22T12:46:40;5.67;;;5.13;;
13279;SDS011;6708;49.814;8.652;2024-03-22T12:49:06;5.30;;;4.77;;
13279;SDS011;6708;49.814;8.652;2024-03-22T12:51:32;5.77;;;4.77;;
13279;SDS011;6708;49.814;8.652;2024-03-22T12:53:58;8.30;;;5.10;;
13279;SDS011;6708;49.814;8.652;2024-03-22T12:56:26;5.00;;;4.37;;
13279;SDS011;6708;49.814;8.652;2024-03-22T12:58:52;5.23;;;4.73;;
13279;SDS011;6708;49.814;8.652;2024-03-22T13:01:18;5.90;;;5.40;;
13279;SDS011;6708;49.814;8.652;2024-03-22T13:03:43;7.53;;;5.37;;
13279;SDS011;6708;49.814;8.652;2024-03-22T13:06:09;9.23;;;6.17;;
13279;SDS011;6708;49.814;8.652;2024-03-22T13:08:35;7.50;;;5.47;;
13279;SDS011;6708;49.814;8.652;2024-03-22T13:11:01;6.77;;;6.07;;
13279;SDS011;6708;49.814;8.652;2024-03-22T13:13:30;6.80;;;6.20;;
13279;SDS011;6708;49.814;8.652;2024-03-22T13:15:56;9.07;;;6.40;;
13279;SDS011;6708;49.814;8.652;2024-03-22T13:18:22;6.57;;;5.63;;
13279;SDS011;6708;49.814;8.652;2024-03-22T13:20:47;6.20;;;5.40;;
13279;SDS011;6708;49.814;8.652;2024-03-22T13:23:13;6.47;;;5.03;;
13279;SDS011;6708;49.814;8.652;2024-03-22T13:25:39;9.63;;;5.37;;
13279;SDS011;6708;49.814;8.652;2024-03-22T13:28:05;9.93;;;5.90;;
13279;SDS011;6708;49.814;8.652;2024-03-22T13:30:33;7.57;;;6.07;;
13279;SDS011;6708;49.814;8.652;2024-03-22T13:32:59;6.03;;;5.40;;
13279;SDS011;6708;49.814;8.652;2024-03-22T13:35:25;7.70;;;5.83;;
13279;SDS011;6708;49.814;8.652;2024-03-22T13:37:51;5.60;;;4.93;;
13279;SDS011;6708;49.814;8.652;2024-03-22T13:40:17;7.80;;;5.80;;
13279;SDS011;6708;49.814;8.652;2024-03-22T13:42:43;8.97;;;6.47;;
13279;SDS011;6708;49.814;8.652;2024-03-22T13:45:09;6.77;;;5.73;;
13279;SDS011;6708;49.814;8.652;2024-03-22T13:47:37;6.97;;;5.67;;
13279;SDS011;6708;49.814;8.652;2024-03-22T13:50:04;7.13;;;5.57;;
13279;SDS011;6708;49.814;8.652;2024-03-22T13:52:30;5.93;;;4.90;;
13279;SDS011;6708;49.814;8.652;2024-03-22T13:54:56;8.77;;;6.50;;
13279;SDS011;6708;49.814;8.652;2024-03-22T13:57:22;8.07;;;5.70;;
13279;SDS011;6708;49.814;8.652;2024-03-22T13:59:48;8.17;;;6.60;;
13279;SDS011;6708;49.814;8.652;2024-03-22T14:02:14;9.37;;;6.27;;
13279;SDS011;6708;49.814;8.652;2024-03-22T14:04:42;9.77;;;7.03;;
13279;SDS011;6708;49.814;8.652;2024-03-22T14:07:08;7.80;;;7.10;;
13279;SDS011;6708;49.814;8.652;2024-03-22T14:09:34;8.67;;;7.67;;
13279;SDS011;6708;49.814;8.652;2024-03-22T14:12:00;6.77;;;6.10;;
13279;SDS011;6708;49.814;8.652;2024-03-22T14:14:26;10.33;;;8.37;;
13279;SDS011;6708;49.814;8.652;2024-03-22T14:16:52;13.53;;;7.90;;
13279;SDS011;6708;49.814;8.652;2024-03-22T14:19:17;11.97;;;7.93;;
13279;SDS011;6708;49.814;8.652;2024-03-22T14:21:46;13.17;;;7.57;;
13279;SDS011;6708;49.814;8.652;2024-03-22T14:24:12;10.53;;;7.87;;
13279;SDS011;6708;49.814;8.652;2024-03-22T14:26:38;10.70;;;7.17;;
13279;SDS011;6708;49.814;8.652;2024-03-22T14:29:04;9.30;;;7.30;;
13279;SDS011;6708;49.814;8.652;2024-03-22T14:31:29;9.87;;;7.07;;
13279;SDS011;6708;49.814;8.652;2024-03-22T14:33:55;8.23;;;7.23;;
13279;SDS011;6708;49.814;8.652;2024-03-22T14:36:21;8.93;;;7.10;;
13279;SDS011;6708;49.814;8.652;2024-03-22T14:38:49;9.20;;;7.20;;
13279;SDS011;6708;49.814;8.652;2024-03-22T14:41:15;7.77;;;6.97;;
13279;SDS011;6708;49.814;8.652;2024-03-22T14:43:41;10.43;;;6.87;;
13279;SDS011;6708;49.814;8.652;2024-03-22T14:46:06;8.60;;;6.87;;
13279;SDS011;6708;49.814;8.652;2024-03-22T14:48:32;8.70;;;6.80;;
13279;SDS011;6708;49.814;8.652;2024-03-22T14:50:58;8.13;;;7.00;;